Time;durP1;ratioP1;P1;durP2;ratioP2;P2;SDS_P1;SDS_P2;PMS_P1;PMS_P2;Temp;Humidity;BMP_temperature;BMP_pressure;BME280_temperature;BME280_humidity;BME280_pressure;Samples;Min_cycle;Max_cycle;Signal;HPM_P1;HPM_P2
2021/12/31 00:00:22;;;;;;;;;;;13.80;99.90;;;;;;5095474;28;19908;-73
2021/12/31 00:02:47;;;;;;;;;;;13.70;99.90;;;;;;5113035;28;19908;-74
2021/12/31 00:05:13;;;;;;;;;;;13.70;99.90;;;;;;5113555;28;19971;-73
2021/12/31 16:23:30;;;;;;;;;;;;;;;;;;5151015;27;19911;-74
2021/12/31 16:25:56;;;;;;;;;;;14.00;99.90;;;;;;5151851;27;19964;-76
2021/12/31 16:28:21;;;;;;;;;;;14.00;99.90;;;;;;5151591;27;19911;-75
2021/12/31 16:30:47;;;;;;;;;;;13.90;99.90;;;;;;5151174;27;19907;-75
2021/12/31 16:33:12;;;;;;;;;;;14.00;99.90;;;;;;5151821;27;19997;-75
2021/12/31 16:35:38;;;;;;;;;;;13.90;99.90;;;;;;5150869;27;19907;-75
2021/12/31 16:38:04;;;;;;;;;;;13.90;99.90;;;;;;5133224;27;19907;-74
2021/12/31 16:40:32;;;;;;;;;;;13.90;99.90;;;;;;5151467;27;20013;-77
2021/12/31 16:42:57;;;;;;;;;;;13.90;99.90;;;;;;5151560;27;19968;-77
2021/12/31 16:45:23;;;;;;;;;;;13.80;99.90;;;;;;5151045;27;19911;-79
2021/12/31 16:47:49;;;;;;;;;;;13.80;99.90;;;;;;5132285;27;19912;-82
2021/12/31 16:50:15;;;;;;;;;;;13.80;99.90;;;;;;5151729;27;19908;-81
2021/12/31 16:52:40;;;;;;;;;;;13.80;99.90;;;;;;5150831;27;19919;-81
2021/12/31 16:55:10;;;;;;;;;;;;;;;;;;5151760;27;20409;-82
2021/12/31 16:57:35;;;;;;;;;;;13.70;99.90;;;;;;5150774;27;19915;-81
2021/12/31 17:00:01;;;;;;;;;;;13.70;99.90;;;;;;5151100;27;19911;-81
2021/12/31 17:02:27;;;;;;;;;;;;;;;;;;5151521;27;20424;-81
2021/12/31 17:04:52;;;;;;;;;;;13.70;99.90;;;;;;5151083;27;20011;-81
2021/12/31 17:07:18;;;;;;;;;;;13.70;99.90;;;;;;5151327;27;20260;-81
2021/12/31 17:09:43;;;;;;;;;;;13.70;99.90;;;;;;5150571;27;19912;-80
2021/12/31 17:12:09;;;;;;;;;;;13.80;99.90;;;;;;5151118;27;19955;-81
2021/12/31 17:14:35;;;;;;;;;;;13.70;99.90;;;;;;5150585;27;19907;-81
2021/12/31 17:17:00;;;;;;;;;;;13.70;99.90;;;;;;5151028;27;19914;-81
2021/12/31 17:19:26;;;;;;;;;;;13.60;99.90;;;;;;5151269;27;19968;-81
2021/12/31 17:21:51;;;;;;;;;;;13.60;99.90;;;;;;5149530;27;19981;-81
2021/12/31 17:24:17;;;;;;;;;;;13.70;99.90;;;;;;5152053;27;19954;-81
2021/12/31 17:26:42;;;;;;;;;;;13.60;99.90;;;;;;5150300;27;19911;-81
2021/12/31 17:29:08;;;;;;;;;;;13.60;99.90;;;;;;5151011;27;19913;-81
2021/12/31 17:31:34;;;;;;;;;;;;;;;;;;5149987;27;20367;-77
2021/12/31 17:33:59;;;;;;;;;;;13.50;99.90;;;;;;5119636;27;19912;-81
2021/12/31 17:36:25;;;;;;;;;;;13.50;99.90;;;;;;5136643;27;19907;-81
2021/12/31 17:38:51;;;;;;;;;;;13.50;99.90;;;;;;5136122;27;19915;-78
2021/12/31 17:41:17;;;;;;;;;;;;;;;;;;5136972;27;19911;-79
2021/12/31 17:43:42;;;;;;;;;;;13.50;99.90;;;;;;5136236;27;20359;-79
2021/12/31 17:46:10;;;;;;;;;;;13.30;99.90;;;;;;5136563;27;19907;-79
2021/12/31 17:48:36;;;;;;;;;;;13.50;99.90;;;;;;5136192;27;19908;-78
2021/12/31 17:51:03;;;;;;;;;;;13.50;99.90;;;;;;5136498;27;20264;-79
2021/12/31 17:53:28;;;;;;;;;;;13.40;99.90;;;;;;5136628;27;19907;-79
2021/12/31 17:55:54;;;;;;;;;;;13.40;99.90;;;;;;5136010;27;20532;-79
2021/12/31 17:58:20;;;;;;;;;;;13.40;99.90;;;;;;5136841;27;20431;-79
2021/12/31 18:00:45;;;;;;;;;;;13.40;99.90;;;;;;5135845;27;20010;-79
2021/12/31 18:03:11;;;;;;;;;;;13.40;99.90;;;;;;5136551;27;19908;-79
2021/12/31 18:05:37;;;;;;;;;;;;;;;;;;5135807;27;20351;-79
2021/12/31 18:08:02;;;;;;;;;;;13.40;99.90;;;;;;5136342;27;19943;-79
2021/12/31 18:10:28;;;;;;;;;;;13.30;99.90;;;;;;5136146;27;19922;-79
2021/12/31 18:12:53;;;;;;;;;;;13.40;99.90;;;;;;5135400;27;20371;-79
2021/12/31 18:15:19;;;;;;;;;;;13.40;99.90;;;;;;5136135;27;20296;-79
2021/12/31 18:17:44;;;;;;;;;;;13.30;99.90;;;;;;5135317;27;20320;-77
2021/12/31 18:20:10;;;;;;;;;;;;;;;;;;5136019;27;19998;-79
2021/12/31 18:22:36;;;;;;;;;;;;;;;;;;5135292;27;19924;-74
2021/12/31 18:25:02;;;;;;;;;;;13.20;99.90;;;;;;5136011;27;19914;-78
2021/12/31 18:27:28;;;;;;;;;;;13.30;99.90;;;;;;5135930;27;19942;-79
2021/12/31 18:29:53;;;;;;;;;;;13.30;99.90;;;;;;5135314;27;19914;-79
2021/12/31 18:32:19;;;;;;;;;;;13.30;99.90;;;;;;5135785;27;19998;-79
2021/12/31 18:34:44;;;;;;;;;;;13.20;99.90;;;;;;5135250;27;19907;-79
2021/12/31 18:37:10;;;;;;;;;;;13.20;99.90;;;;;;5135887;27;19912;-79
2021/12/31 18:39:35;;;;;;;;;;;13.20;99.90;;;;;;5128584;27;20352;-78
2021/12/31 18:42:01;;;;;;;;;;;13.20;99.90;;;;;;5114508;28;20009;-79
2021/12/31 18:44:27;;;;;;;;;;;;;;;;;;5095776;28;19911;-79
2021/12/31 18:47:36;;;;;;;;;;;13.20;99.90;;;;;;5114345;28;19959;-79
2021/12/31 18:49:48;;;;;;;;;;;13.20;99.90;;;;;;5102870;28;19960;-79
2021/12/31 18:52:13;;;;;;;;;;;13.20;99.90;;;;;;5114990;28;20355;-79
2021/12/31 18:54:39;;;;;;;;;;;13.20;99.90;;;;;;5114063;28;20022;-78
2021/12/31 18:57:05;;;;;;;;;;;13.30;99.90;;;;;;5114904;28;19908;-80
2021/12/31 18:59:30;;;;;;;;;;;13.20;99.90;;;;;;5114509;28;19995;-79
2021/12/31 19:01:56;;;;;;;;;;;13.20;99.90;;;;;;5114207;28;19915;-79
2021/12/31 19:04:21;;;;;;;;;;;13.20;99.90;;;;;;5114781;28;19908;-79
2021/12/31 19:06:47;;;;;;;;;;;;;;;;;;5114101;28;19919;-79
2021/12/31 19:09:13;;;;;;;;;;;13.20;99.90;;;;;;5118293;27;19907;-80
2021/12/31 19:11:38;;;;;;;;;;;13.30;99.90;;;;;;5135021;27;19915;-79
2021/12/31 19:14:04;;;;;;;;;;;13.20;99.90;;;;;;5134587;27;19914;-79
2021/12/31 19:16:29;;;;;;;;;;;13.20;99.90;;;;;;5134960;27;19994;-79
2021/12/31 19:18:55;;;;;;;;;;;13.30;99.90;;;;;;5134177;27;20010;-80
2021/12/31 19:21:21;;;;;;;;;;;13.20;99.90;;;;;;5134566;27;19924;-78
2021/12/31 19:23:47;;;;;;;;;;;;;;;;;;5115761;27;19949;-79
2021/12/31 19:26:12;;;;;;;;;;;13.20;99.90;;;;;;5134783;27;19915;-79
2021/12/31 19:28:38;;;;;;;;;;;13.20;99.90;;;;;;5134819;27;19908;-79
2021/12/31 19:31:04;;;;;;;;;;;13.20;99.90;;;;;;5133956;27;19922;-79
2021/12/31 19:33:30;;;;;;;;;;;13.20;99.90;;;;;;5134732;27;19914;-80
2021/12/31 19:35:55;;;;;;;;;;;13.20;99.90;;;;;;5133999;27;20336;-79
2021/12/31 19:38:21;;;;;;;;;;;13.20;99.90;;;;;;5134660;27;19915;-79
2021/12/31 19:40:47;;;;;;;;;;;;;;;;;;5133838;27;19912;-79
2021/12/31 19:43:12;;;;;;;;;;;13.30;99.90;;;;;;5134689;27;19915;-79
2021/12/31 19:45:39;;;;;;;;;;;13.20;99.90;;;;;;5134543;27;20006;-80
2021/12/31 19:48:07;;;;;;;;;;;13.20;99.90;;;;;;5133902;27;19921;-79
2021/12/31 19:50:33;;;;;;;;;;;13.20;99.90;;;;;;5134383;27;19998;-79
2021/12/31 19:52:59;;;;;;;;;;;13.20;99.90;;;;;;5133723;27;19916;-79
2021/12/31 19:55:25;;;;;;;;;;;13.30;99.90;;;;;;5134076;27;19930;-78
2021/12/31 19:57:51;;;;;;;;;;;13.30;99.90;;;;;;5133665;27;19907;-79
2021/12/31 20:00:19;;;;;;;;;;;;;;;;;;5134301;27;19918;-80
2021/12/31 20:02:50;;;;;;;;;;;13.20;99.90;;;;;;5133731;27;20002;-79
2021/12/31 20:05:16;;;;;;;;;;;13.20;99.90;;;;;;5134234;27;19919;-78
2021/12/31 20:07:42;;;;;;;;;;;;;;;;;;5134218;27;19956;-78
2021/12/31 20:10:08;;;;;;;;;;;13.20;99.90;;;;;;5133923;27;19911;-78
2021/12/31 20:12:33;;;;;;;;;;;13.30;99.90;;;;;;5134020;27;20014;-79
2021/12/31 20:14:59;;;;;;;;;;;13.30;99.90;;;;;;5133480;27;19914;-79
2021/12/31 20:17:24;;;;;;;;;;;13.20;99.90;;;;;;5133972;27;19907;-79
2021/12/31 20:19:50;;;;;;;;;;;13.20;99.90;;;;;;5133387;28;19907;-79
2021/12/31 20:22:15;;;;;;;;;;;13.20;99.90;;;;;;5133421;28;20282;-79
2021/12/31 20:24:41;;;;;;;;;;;13.30;99.90;;;;;;5134318;28;19907;-78
2021/12/31 20:27:06;;;;;;;;;;;13.20;99.90;;;;;;5133032;28;19934;-79
2021/12/31 20:29:31;;;;;;;;;;;13.20;99.90;;;;;;5134062;28;19908;-78
2021/12/31 20:31:57;;;;;;;;;;;13.20;99.90;;;;;;5133241;28;20389;-78
2021/12/31 20:34:23;;;;;;;;;;;13.20;99.90;;;;;;5133195;28;19957;-78
2021/12/31 20:36:48;;;;;;;;;;;13.20;99.90;;;;;;5133238;28;20316;-78
2021/12/31 20:39:14;;;;;;;;;;;13.20;99.90;;;;;;5133740;28;19912;-78
2021/12/31 20:41:40;;;;;;;;;;;13.20;99.90;;;;;;5133824;28;19931;-78
2021/12/31 20:44:06;;;;;;;;;;;13.00;99.90;;;;;;5133097;28;19911;-78
2021/12/31 20:46:31;;;;;;;;;;;13.20;99.90;;;;;;5133572;28;20255;-78
2021/12/31 20:48:57;;;;;;;;;;;;;;;;;;5133181;28;19911;-77
2021/12/31 20:51:23;;;;;;;;;;;13.20;99.90;;;;;;5133761;28;19923;-77
2021/12/31 20:53:48;;;;;;;;;;;13.20;99.90;;;;;;5133436;28;19911;-77
2021/12/31 20:56:14;;;;;;;;;;;13.30;99.90;;;;;;5133665;28;19907;-78
2021/12/31 20:58:39;;;;;;;;;;;13.20;99.90;;;;;;5133699;28;20303;-77
2021/12/31 21:01:05;;;;;;;;;;;13.20;99.90;;;;;;5133058;28;20006;-78
2021/12/31 21:03:31;;;;;;;;;;;13.20;99.90;;;;;;5133604;28;19952;-79
2021/12/31 21:05:57;;;;;;;;;;;;;;;;;;5133022;28;19911;-79
2021/12/31 21:08:23;;;;;;;;;;;13.20;99.90;;;;;;5135162;27;19915;-79
2021/12/31 21:10:48;;;;;;;;;;;13.20;99.90;;;;;;5136688;27;19907;-79
2021/12/31 21:13:14;;;;;;;;;;;13.20;99.90;;;;;;5137492;27;20351;-79
2021/12/31 21:15:39;;;;;;;;;;;13.20;99.90;;;;;;5137344;27;20263;-78
2021/12/31 21:18:07;;;;;;;;;;;13.20;99.90;;;;;;5136773;27;19907;-79
2021/12/31 21:20:33;;;;;;;;;;;;;;;;;;5137442;27;19914;-77
2021/12/31 21:22:58;;;;;;;;;;;13.10;99.90;;;;;;5118135;27;19908;-79
2021/12/31 21:25:24;;;;;;;;;;;13.20;99.90;;;;;;5137326;27;19912;-79
2021/12/31 21:27:50;;;;;;;;;;;13.30;99.90;;;;;;5136591;27;19908;-78
2021/12/31 21:30:15;;;;;;;;;;;13.20;99.90;;;;;;5136818;27;19961;-75
2021/12/31 21:32:41;;;;;;;;;;;13.20;99.90;;;;;;5137000;27;19916;-74
2021/12/31 21:35:07;;;;;;;;;;;;;;;;;;5136309;27;20332;-76
2021/12/31 21:37:35;;;;;;;;;;;13.20;99.90;;;;;;5136901;27;19914;-75
2021/12/31 21:40:04;;;;;;;;;;;13.30;99.90;;;;;;5125877;27;19943;-75
2021/12/31 21:42:29;;;;;;;;;;;13.30;99.90;;;;;;5116353;28;19907;-74
2021/12/31 21:44:54;;;;;;;;;;;13.20;99.90;;;;;;5115671;28;19915;-74
2021/12/31 21:47:20;;;;;;;;;;;13.30;99.90;;;;;;5116626;28;20322;-75
2021/12/31 21:49:45;;;;;;;;;;;13.30;99.90;;;;;;5116186;28;19907;-76
2021/12/31 21:52:11;;;;;;;;;;;13.30;99.90;;;;;;5115617;28;20317;-75
2021/12/31 21:54:37;;;;;;;;;;;;;;;;;;5115802;28;20271;-74
2021/12/31 21:57:02;;;;;;;;;;;13.30;99.90;;;;;;5115341;28;19915;-76
2021/12/31 21:59:28;;;;;;;;;;;;;;;;;;5115850;28;19908;-76
2021/12/31 22:01:54;;;;;;;;;;;13.30;99.90;;;;;;5115572;28;19908;-76
2021/12/31 22:04:19;;;;;;;;;;;13.30;99.90;;;;;;5115836;28;19908;-76
2021/12/31 22:06:45;;;;;;;;;;;13.40;99.90;;;;;;5115855;28;19907;-75
2021/12/31 22:09:11;;;;;;;;;;;13.30;99.90;;;;;;5118309;27;20005;-76
2021/12/31 22:11:36;;;;;;;;;;;13.30;99.90;;;;;;5136231;27;20461;-76
2021/12/31 22:14:01;;;;;;;;;;;13.30;99.90;;;;;;5135635;27;19907;-77
2021/12/31 22:16:27;;;;;;;;;;;;;;;;;;5136226;27;20290;-76
2021/12/31 22:18:53;;;;;;;;;;;13.30;99.90;;;;;;5135401;27;19908;-76
2021/12/31 22:21:18;;;;;;;;;;;13.30;99.90;;;;;;5135827;27;20006;-76
2021/12/31 22:23:44;;;;;;;;;;;13.30;99.90;;;;;;5135971;27;19946;-76
2021/12/31 22:26:09;;;;;;;;;;;13.30;99.90;;;;;;5135010;27;19914;-76
2021/12/31 22:28:35;;;;;;;;;;;13.30;99.90;;;;;;5116990;27;19908;-76
2021/12/31 22:31:00;;;;;;;;;;;13.40;99.90;;;;;;5134442;27;20436;-76
2021/12/31 22:33:26;;;;;;;;;;;13.40;99.90;;;;;;5135802;27;19960;-77
2021/12/31 22:35:54;;;;;;;;;;;;;;;;;;5135274;27;19943;-73
2021/12/31 22:38:23;;;;;;;;;;;13.40;99.90;;;;;;5135807;27;20003;-76
2021/12/31 22:40:48;;;;;;;;;;;13.30;99.90;;;;;;5135618;27;20315;-76
2021/12/31 22:43:14;;;;;;;;;;;13.30;99.90;;;;;;5135074;27;19907;-76
2021/12/31 22:45:39;;;;;;;;;;;13.20;99.90;;;;;;5135654;27;20273;-76
2021/12/31 22:48:05;;;;;;;;;;;13.20;99.90;;;;;;5135005;27;19908;-76
2021/12/31 22:50:31;;;;;;;;;;;13.20;99.90;;;;;;5135139;27;19908;-77
2021/12/31 22:52:56;;;;;;;;;;;13.30;99.90;;;;;;5134896;27;19974;-76
2021/12/31 22:55:22;;;;;;;;;;;13.30;99.90;;;;;;5135289;27;19915;-77
2021/12/31 22:57:48;;;;;;;;;;;;;;;;;;5135487;27;20052;-76
2021/12/31 23:00:14;;;;;;;;;;;13.20;99.90;;;;;;5134776;27;19919;-75
2021/12/31 23:02:39;;;;;;;;;;;13.30;99.90;;;;;;5116525;27;20313;-76
2021/12/31 23:05:05;;;;;;;;;;;13.20;99.90;;;;;;5134612;27;19912;-75
2021/12/31 23:07:31;;;;;;;;;;;13.20;99.90;;;;;;5135209;27;19908;-77
2021/12/31 23:09:56;;;;;;;;;;;13.20;99.90;;;;;;5134394;27;19912;-76
2021/12/31 23:12:22;;;;;;;;;;;13.20;99.90;;;;;;5134893;27;19921;-76
2021/12/31 23:14:48;;;;;;;;;;;;;;;;;;5134788;27;19911;-77
2021/12/31 23:17:13;;;;;;;;;;;13.20;99.90;;;;;;5134142;27;20296;-76
2021/12/31 23:19:38;;;;;;;;;;;13.10;99.90;;;;;;5135244;27;19990;-76
2021/12/31 23:22:04;;;;;;;;;;;13.20;99.90;;;;;;5133911;27;19923;-76
2021/12/31 23:24:30;;;;;;;;;;;13.20;99.90;;;;;;5134895;27;19908;-76
2021/12/31 23:26:55;;;;;;;;;;;13.20;99.90;;;;;;5115780;27;19951;-75
2021/12/31 23:29:21;;;;;;;;;;;13.20;99.90;;;;;;5134741;27;19952;-76
2021/12/31 23:31:47;;;;;;;;;;;13.20;99.90;;;;;;5134088;27;19920;-76
2021/12/31 23:34:12;;;;;;;;;;;13.10;99.90;;;;;;5134100;27;19915;-76
2021/12/31 23:36:38;;;;;;;;;;;13.20;99.90;;;;;;5134764;27;19907;-76
2021/12/31 23:39:05;;;;;;;;;;;13.20;99.90;;;;;;5133926;27;19908;-76
2021/12/31 23:42:07;;;;;;;;;;;13.20;99.90;;;;;;5134201;27;20272;-76
2021/12/31 23:44:22;;;;;;;;;;;13.20;99.90;;;;;;5130008;27;20439;-76
2021/12/31 23:46:48;;;;;;;;;;;13.20;99.90;;;;;;5134409;27;19966;-76
2021/12/31 23:49:16;;;;;;;;;;;13.10;99.90;;;;;;5133792;27;19908;-76
2021/12/31 23:51:42;;;;;;;;;;;;;;;;;;5134043;27;19949;-76
2021/12/31 23:54:08;;;;;;;;;;;;;;;;;;5133753;27;20340;-76
2021/12/31 23:56:33;;;;;;;;;;;13.10;99.90;;;;;;5134198;27;19908;-76
2021/12/31 23:58:58;;;;;;;;;;;13.10;99.90;;;;;;5133687;27;19915;-75
